createdAt,value
2022-08-30T00:04:39.596Z,100782.72
2022-08-30T00:09:43.843Z,100774.94
2022-08-30T00:14:51.606Z,100771.63
2022-08-30T00:19:57.320Z,100775.97
2022-08-30T00:25:01.453Z,100777.63
2022-08-30T00:30:10.747Z,100775.16
2022-08-30T00:35:21.526Z,100777.16
2022-08-30T00:40:27.695Z,100780.13
2022-08-30T00:45:39.401Z,100788.41
2022-08-30T00:50:56.300Z,100798.19
2022-08-30T00:56:01.878Z,100795.06
2022-08-30T01:01:12.968Z,100782.31
2022-08-30T01:06:19.657Z,100780.97
2022-08-30T01:11:26.298Z,100787.56
2022-08-30T01:16:34.538Z,100789.91
2022-08-30T01:21:47.462Z,100796.63
2022-08-30T01:26:56.083Z,100797.47
2022-08-30T01:31:59.665Z,100788.22
2022-08-30T01:37:04.202Z,100789.88
2022-08-30T01:42:10.383Z,100794.00
2022-08-30T01:47:15.230Z,100798.28
2022-08-30T01:52:20.105Z,100792.00
2022-08-30T01:57:27.591Z,100789.69
2022-08-30T02:02:35.720Z,100784.72
2022-08-30T02:07:41.461Z,100780.41
2022-08-30T02:12:47.656Z,100783.72
2022-08-30T02:17:54.482Z,100781.38
2022-08-30T02:23:01.227Z,100776.72
2022-08-30T02:28:07.442Z,100784.66
2022-08-30T02:33:12.427Z,100782.50
2022-08-30T02:38:18.946Z,100775.22
2022-08-30T02:43:25.407Z,100778.00
2022-08-30T02:48:29.293Z,100779.34
2022-08-30T02:53:36.907Z,100777.84
2022-08-30T02:58:43.178Z,100764.94
2022-08-30T03:03:48.023Z,100766.91
2022-08-30T03:08:52.221Z,100754.69
2022-08-30T03:13:59.713Z,100762.78
2022-08-30T03:19:02.814Z,100761.44
2022-08-30T03:24:08.687Z,100773.31
2022-08-30T03:29:13.597Z,100766.72
2022-08-30T03:34:20.124Z,100774.63
2022-08-30T03:39:26.882Z,100776.94
2022-08-30T03:44:32.926Z,100777.94
2022-08-30T03:49:38.845Z,100779.22
2022-08-30T03:54:42.245Z,100781.38
2022-08-30T03:59:48.621Z,100781.84
2022-08-30T04:04:59.616Z,100788.88
2022-08-30T04:10:05.075Z,100778.22
2022-08-30T04:15:12.787Z,100779.41
2022-08-30T04:20:16.824Z,100779.03
2022-08-30T04:25:20.759Z,100790.75
2022-08-30T04:30:25.857Z,100790.75
2022-08-30T04:35:30.115Z,100782.81
2022-08-30T04:40:37.435Z,100788.91
2022-08-30T04:45:44.919Z,100796.84
2022-08-30T04:50:51.364Z,100789.59
2022-08-30T04:55:57.674Z,100810.59
2022-08-30T05:01:03.393Z,100819.53
2022-08-30T05:06:12.235Z,100831.16
2022-08-30T05:11:17.436Z,100843.72
2022-08-30T05:16:25.143Z,100843.31
2022-08-30T05:21:30.123Z,100848.78
2022-08-30T05:26:35.577Z,100854.28
2022-08-30T05:31:42.699Z,100855.28
2022-08-30T05:36:47.677Z,100865.75
2022-08-30T05:41:54.416Z,100853.59
2022-08-30T05:47:03.359Z,100853.50
2022-08-30T05:52:08.571Z,100842.69
2022-08-30T05:57:15.522Z,100838.91
2022-08-30T06:02:23.746Z,100838.69
2022-08-30T06:07:31.670Z,100837.81
2022-08-30T06:12:36.492Z,100855.47
2022-08-30T06:17:43.899Z,100867.00
2022-08-30T06:22:51.529Z,100873.97
2022-08-30T06:27:56.622Z,100869.84
2022-08-30T06:33:02.212Z,100871.19
2022-08-30T06:38:06.134Z,100872.53
2022-08-30T06:43:09.677Z,100874.94
2022-08-30T06:48:16.858Z,100865.44
2022-08-30T06:53:22.748Z,100863.69
2022-08-30T06:58:28.678Z,100872.19
2022-08-30T07:03:36.641Z,100880.97
2022-08-30T07:08:41.186Z,100864.81
2022-08-30T07:13:45.808Z,100866.84
2022-08-30T07:18:55.160Z,100876.03
2022-08-30T07:24:00.113Z,100873.09
2022-08-30T07:29:04.628Z,100872.91
2022-08-30T07:34:11.076Z,100881.38
2022-08-30T07:39:14.248Z,100881.72
2022-08-30T07:44:18.181Z,100883.34
2022-08-30T07:49:24.067Z,100885.72
2022-08-30T07:54:27.748Z,100881.34
2022-08-30T07:59:36.071Z,100885.81
2022-08-30T08:04:42.805Z,100879.88
2022-08-30T08:09:48.275Z,100878.50
2022-08-30T08:14:52.846Z,100891.34
2022-08-30T08:19:59.324Z,100880.28
2022-08-30T08:25:03.763Z,100884.84
2022-08-30T08:30:09.352Z,100886.94
2022-08-30T08:35:15.503Z,100890.84
2022-08-30T08:40:22.334Z,100894.44
2022-08-30T08:45:37.816Z,100903.97
2022-08-30T08:51:04.156Z,100901.56
2022-08-30T08:56:13.572Z,100889.50
2022-08-30T09:01:20.119Z,100890.13
2022-08-30T09:06:47.241Z,100890.78
2022-08-30T09:11:50.637Z,100893.50
2022-08-30T09:17:02.574Z,100892.06
2022-08-30T09:22:17.887Z,100891.69
2022-08-30T09:27:26.180Z,100888.38
2022-08-30T09:32:33.731Z,100890.22
2022-08-30T09:37:50.105Z,100885.88
2022-08-30T09:43:09.763Z,100867.28
2022-08-30T09:48:31.444Z,100883.59
2022-08-30T09:53:40.693Z,100870.69
2022-08-30T09:59:03.792Z,100874.59
2022-08-30T10:04:16.616Z,100883.25
2022-08-30T10:09:33.597Z,100864.31
2022-08-30T10:15:05.588Z,100872.75
2022-08-30T10:20:19.143Z,100866.56
2022-08-30T10:25:29.804Z,100856.03
2022-08-30T10:30:40.249Z,100852.72
2022-08-30T10:35:47.837Z,100849.34
2022-08-30T10:41:14.675Z,100843.19
2022-08-30T10:46:24.930Z,100840.47
2022-08-30T10:51:33.591Z,100841.13
2022-08-30T10:56:44.556Z,100835.97
2022-08-30T11:02:11.675Z,100835.53
2022-08-30T11:07:30.833Z,100838.75
2022-08-30T11:12:39.415Z,100835.00
2022-08-30T11:17:54.612Z,100827.31
2022-08-30T11:23:32.646Z,100831.34
2022-08-30T11:29:07.640Z,100823.53
2022-08-30T11:34:12.632Z,100828.19
2022-08-30T11:39:45.132Z,100834.47
2022-08-30T11:44:49.691Z,100829.44
2022-08-30T11:50:12.227Z,100834.84
2022-08-30T11:55:34.564Z,100829.31
2022-08-30T12:00:50.731Z,100833.25
2022-08-30T12:06:00.124Z,100815.16
2022-08-30T12:11:06.809Z,100815.97
2022-08-30T12:16:14.897Z,100822.97
2022-08-30T12:21:31.177Z,100821.50
2022-08-30T12:26:43.466Z,100812.44
2022-08-30T12:31:52.912Z,100815.16
2022-08-30T12:37:00.625Z,100803.19
2022-08-30T12:42:18.120Z,100802.75
2022-08-30T12:47:29.291Z,100789.97
2022-08-30T12:52:37.927Z,100787.72
2022-08-30T12:57:44.811Z,100790.91
2022-08-30T13:02:54.637Z,100788.03
2022-08-30T13:08:11.595Z,100786.84
2022-08-30T13:13:33.458Z,100780.69
2022-08-30T13:18:38.706Z,100790.78
2022-08-30T13:23:42.276Z,100782.75
2022-08-30T13:28:48.860Z,100777.59
2022-08-30T13:33:55.539Z,100776.56
2022-08-30T13:39:00.853Z,100778.44
2022-08-30T13:44:13.933Z,100778.44
2022-08-30T13:54:47.952Z,100769.75
2022-08-30T13:59:53.981Z,100778.63
2022-08-30T14:05:03.476Z,100769.38
2022-08-30T14:15:33.085Z,100763.41
2022-08-30T14:20:38.590Z,100764.19
2022-08-30T14:25:43.117Z,100757.97
2022-08-30T14:30:46.927Z,100765.44
2022-08-30T14:35:55.783Z,100762.75
2022-08-30T14:41:00.858Z,100774.53
2022-08-30T14:46:04.850Z,100763.16
2022-08-30T14:51:15.645Z,100758.03
2022-08-30T14:56:21.282Z,100758.47
2022-08-30T15:01:25.250Z,100752.72
2022-08-30T15:06:29.965Z,100766.94
2022-08-30T15:11:33.360Z,100771.88
2022-08-30T15:16:39.273Z,100762.81
2022-08-30T15:21:48.991Z,100757.69
2022-08-30T15:26:53.461Z,100756.66
2022-08-30T15:31:57.195Z,100763.84
2022-08-30T15:37:02.978Z,100758.72
2022-08-30T15:42:07.258Z,100764.69
2022-08-30T15:47:10.852Z,100765.28
2022-08-30T15:52:15.683Z,100747.41
2022-08-30T15:57:19.297Z,100747.19
2022-08-30T16:02:27.526Z,100742.69
2022-08-30T16:07:37.405Z,100740.56
2022-08-30T16:12:43.947Z,100732.16
2022-08-30T16:17:47.398Z,100734.81
2022-08-30T16:22:52.885Z,100728.84
2022-08-30T16:27:56.284Z,100727.81
2022-08-30T16:33:00.047Z,100718.16
2022-08-30T16:38:04.633Z,100720.00
2022-08-30T16:43:09.261Z,100709.09
2022-08-30T16:48:16.952Z,100716.28
2022-08-30T16:53:24.043Z,100703.94
2022-08-30T16:58:28.899Z,100702.72
2022-08-30T17:03:32.412Z,100706.00
2022-08-30T17:08:38.798Z,100704.06
2022-08-30T17:13:45.034Z,100702.03
2022-08-30T17:18:51.379Z,100708.38
2022-08-30T17:24:01.893Z,100706.91
2022-08-30T17:29:07.800Z,100702.56
2022-08-30T17:34:13.715Z,100706.63
2022-08-30T17:39:19.178Z,100710.69
2022-08-30T17:44:27.212Z,100718.06
2022-08-30T17:49:33.890Z,100718.41
2022-08-30T17:54:39.129Z,100725.72
2022-08-30T17:59:43.982Z,100746.41
2022-08-30T18:04:48.040Z,100747.78
2022-08-30T18:09:54.584Z,100742.78
2022-08-30T18:14:58.237Z,100747.00
2022-08-30T18:20:02.553Z,100756.16
2022-08-30T18:25:09.981Z,100745.00
2022-08-30T18:30:14.320Z,100762.31
2022-08-30T18:35:18.152Z,100766.47
2022-08-30T18:40:22.942Z,100779.94
2022-08-30T18:45:26.884Z,100786.59
2022-08-30T18:50:31.639Z,100780.28
2022-08-30T18:55:37.444Z,100772.59
2022-08-30T19:00:41.046Z,100778.03
2022-08-30T19:05:45.023Z,100781.19
2022-08-30T19:10:50.524Z,100778.41
2022-08-30T19:15:57.420Z,100784.84
2022-08-30T19:21:01.887Z,100790.25
2022-08-30T19:26:07.462Z,100781.91
2022-08-30T19:31:14.269Z,100791.00
2022-08-30T19:36:17.854Z,100788.59
2022-08-30T19:41:22.888Z,100793.16
2022-08-30T19:46:28.607Z,100802.91
2022-08-30T19:51:33.666Z,100799.31
2022-08-30T19:56:38.940Z,100799.97
2022-08-30T20:01:42.745Z,100806.41
2022-08-30T20:06:49.155Z,100814.41
2022-08-30T20:11:55.300Z,100808.34
2022-08-30T20:22:26.715Z,100808.78
2022-08-30T20:27:32.762Z,100816.34
2022-08-30T20:32:42.601Z,100812.72
2022-08-30T20:37:47.156Z,100807.66
2022-08-30T20:42:52.891Z,100811.53
2022-08-30T20:47:56.713Z,100810.56
2022-08-30T20:53:00.054Z,100808.78
2022-08-30T20:58:04.782Z,100818.25
2022-08-30T21:03:11.418Z,100815.97
2022-08-30T21:08:29.234Z,100825.00
2022-08-30T21:13:34.616Z,100823.19
2022-08-30T21:18:39.349Z,100829.16
2022-08-30T21:23:43.343Z,100825.38
2022-08-30T21:28:49.674Z,100822.25
2022-08-30T21:33:54.889Z,100821.09
2022-08-30T21:39:00.736Z,100832.06
2022-08-30T21:44:08.880Z,100841.81
2022-08-30T21:49:13.977Z,100836.06
2022-08-30T21:54:18.679Z,100831.41
2022-08-30T21:59:23.688Z,100835.41
2022-08-30T22:04:29.745Z,100841.88
2022-08-30T22:09:33.295Z,100842.34
2022-08-30T22:14:38.619Z,100835.09
2022-08-30T22:19:43.156Z,100853.13
2022-08-30T22:24:46.510Z,100847.53
2022-08-30T22:29:53.939Z,100839.06
2022-08-30T22:34:58.901Z,100842.41
2022-08-30T22:40:02.658Z,100842.41
2022-08-30T22:45:09.825Z,100841.06
2022-08-30T22:50:14.484Z,100848.50
2022-08-30T22:55:18.054Z,100856.94
2022-08-30T23:00:23.921Z,100854.63
2022-08-30T23:05:28.914Z,100854.16
2022-08-30T23:10:33.571Z,100867.38
2022-08-30T23:15:38.657Z,100867.56
2022-08-30T23:20:43.054Z,100872.16
2022-08-30T23:26:03.786Z,100869.19
2022-08-30T23:31:31.167Z,100869.50
2022-08-30T23:36:51.971Z,100867.34
2022-08-30T23:42:13.497Z,100867.00
2022-08-30T23:47:36.177Z,100867.13
2022-08-30T23:52:56.626Z,100867.31
2022-08-30T23:58:20.748Z,100871.47
